Terminal Aerodrome Forecast
Issued by NWS

Home | Current Version | Previous Version | Text Only | Print | Product List | Glossary On
Versions: 1 2 3 4 5 6 7 8 9 10 11 12 13 14 15 16 17 18 19 20
000
FTUS41 KGYX 282320
TAFHIE
TAF
KHIE 282320Z 2900/2924 19008KT P6SM BKN050 BKN100
      TEMPO 2900/2902 3SM TSRA OVC040CB
     FM290200 17003KT 4SM BR VCSH BKN050 OVC100
     FM290700 VRB04KT 1/2SM FG OVC003
     FM291500 32012G20KT P6SM BKN050=

USA.gov is the U.S. government's official web portal to all federal, state and local government web resources and services.